Time,TemperatureF,DewpointF,PressureIn,WindDirection,WindDirectionDegrees,WindSpeedMPH,WindSpeedGustMPH,Humidity,HourlyPrecipIn,Conditions,Clouds,dailyrainin,SoftwareType,DateUTC
2013-09-18 00:07:00,65.5,58.8,29.98,NE,45,0.0,-999.0,79,-99.99,,,0.00,Acu-Link.com,2013-09-18 04:07:00,
2013-09-18 00:22:00,65.1,58.4,29.99,NNE,22,0.0,-999.0,79,-99.99,,,0.00,Acu-Link.com,2013-09-18 04:22:00,
2013-09-18 00:37:00,64.9,58.2,29.98,East,90,0.0,-999.0,79,-99.99,,,0.00,Acu-Link.com,2013-09-18 04:37:00,
2013-09-18 00:52:00,64.8,58.1,29.98,ENE,67,0.0,-999.0,79,-99.99,,,0.00,Acu-Link.com,2013-09-18 04:52:00,
2013-09-18 01:07:00,64.9,57.5,29.98,NE,45,0.0,-999.0,77,-99.99,,,0.00,Acu-Link.com,2013-09-18 05:07:00,
2013-09-18 01:22:00,65.1,57.7,29.98,NNE,22,1.1,-999.0,77,-99.99,,,0.00,Acu-Link.com,2013-09-18 05:22:00,
2013-09-18 01:37:00,65.1,57.7,29.98,SE,135,0.0,-999.0,77,-99.99,,,0.00,Acu-Link.com,2013-09-18 05:37:00,
2013-09-18 01:52:00,65.1,57.0,29.98,NE,45,0.0,-999.0,75,-99.99,,,0.00,Acu-Link.com,2013-09-18 05:52:00,
2013-09-18 02:08:00,65.1,57.3,29.98,NE,45,0.0,-999.0,76,-99.99,,,0.00,Acu-Link.com,2013-09-18 06:08:00,
2013-09-18 02:23:00,65.1,57.0,29.97,North,0,1.1,-999.0,75,-99.99,,,0.00,Acu-Link.com,2013-09-18 06:23:00,
2013-09-18 02:38:00,65.1,57.0,29.98,East,90,0.0,-999.0,75,-99.99,,,0.00,Acu-Link.com,2013-09-18 06:38:00,
2013-09-18 02:53:00,64.8,57.1,29.96,ENE,67,2.7,-999.0,76,-99.99,,,0.00,Acu-Link.com,2013-09-18 06:53:00,
2013-09-18 03:08:00,64.8,57.1,29.97,WSW,247,0.0,-999.0,76,-99.99,,,0.00,Acu-Link.com,2013-09-18 07:08:00,
2013-09-18 03:23:00,64.6,56.9,29.97,NNE,22,0.0,-999.0,76,-99.99,,,0.00,Acu-Link.com,2013-09-18 07:23:00,
2013-09-18 03:38:00,64.4,57.0,29.97,East,90,0.0,-999.0,77,-99.99,,,0.00,Acu-Link.com,2013-09-18 07:38:00,
2013-09-18 03:53:00,64.0,56.6,29.97,SSW,202,1.1,-999.0,77,-99.99,,,0.00,Acu-Link.com,2013-09-18 07:53:00,
2013-09-18 04:08:00,64.0,57.0,29.96,ENE,67,0.0,-999.0,78,-99.99,,,0.00,Acu-Link.com,2013-09-18 08:08:00,
2013-09-18 04:25:00,64.0,57.0,29.97,SSW,202,0.0,-999.0,78,-99.99,,,0.00,Acu-Link.com,2013-09-18 08:25:00,
2013-09-18 04:40:00,63.9,56.9,29.96,East,90,0.0,-999.0,78,-99.99,,,0.00,Acu-Link.com,2013-09-18 08:40:00,
2013-09-18 04:55:00,63.5,56.9,29.97,SSW,202,1.7,-999.0,79,-99.99,,,0.00,Acu-Link.com,2013-09-18 08:55:00,
2013-09-18 05:10:00,63.1,56.5,29.96,ESE,112,0.0,-999.0,79,-99.99,,,0.00,Acu-Link.com,2013-09-18 09:10:00,
2013-09-18 05:25:00,63.0,56.4,29.96,SSE,157,0.0,-999.0,79,-99.99,,,0.00,Acu-Link.com,2013-09-18 09:25:00,
2013-09-18 05:40:00,62.4,56.1,29.96,East,90,1.1,-999.0,80,-99.99,,,0.00,Acu-Link.com,2013-09-18 09:40:00,
2013-09-18 05:55:00,62.1,55.9,29.97,North,0,2.7,-999.0,80,-99.99,,,0.00,Acu-Link.com,2013-09-18 09:55:00,
2013-09-18 06:10:00,61.9,56.0,29.97,ESE,112,3.2,-999.0,81,-99.99,,,0.00,Acu-Link.com,2013-09-18 10:10:00,
2013-09-18 06:25:00,61.7,55.8,29.98,SSE,157,0.0,-999.0,81,-99.99,,,0.00,Acu-Link.com,2013-09-18 10:25:00,
2013-09-18 06:40:00,61.5,55.6,29.99,East,90,2.2,-999.0,81,-99.99,,,0.00,Acu-Link.com,2013-09-18 10:40:00,
2013-09-18 06:56:00,61.3,55.1,29.99,NNE,22,0.0,-999.0,80,-99.99,,,0.00,Acu-Link.com,2013-09-18 10:56:00,
2013-09-18 07:11:00,61.3,55.1,29.99,ENE,67,2.2,-999.0,80,-99.99,,,0.00,Acu-Link.com,2013-09-18 11:11:00,
2013-09-18 07:26:00,61.3,55.1,30.00,South,180,2.7,-999.0,80,-99.99,,,0.00,Acu-Link.com,2013-09-18 11:26:00,
2013-09-18 07:41:00,61.5,54.9,30.00,NE,45,2.2,-999.0,79,-99.99,,,0.00,Acu-Link.com,2013-09-18 11:41:00,
2013-09-18 07:56:00,61.5,54.9,30.01,North,0,0.0,-999.0,79,-99.99,,,0.00,Acu-Link.com,2013-09-18 11:56:00,
2013-09-18 08:11:00,61.5,54.9,30.01,SE,135,1.7,-999.0,79,-99.99,,,0.00,Acu-Link.com,2013-09-18 12:11:00,
2013-09-18 08:26:00,61.3,54.4,30.02,ENE,67,1.7,-999.0,78,-99.99,,,0.00,Acu-Link.com,2013-09-18 12:26:00,
2013-09-18 08:41:00,61.9,55.0,30.01,East,90,1.1,-999.0,78,-99.99,,,0.00,Acu-Link.com,2013-09-18 12:41:00,
2013-09-18 08:56:00,62.2,54.5,30.02,South,180,1.1,-999.0,76,-99.99,,,0.00,Acu-Link.com,2013-09-18 12:56:00,
2013-09-18 09:12:00,62.8,55.1,30.02,NE,45,2.2,-999.0,76,-99.99,,,0.00,Acu-Link.com,2013-09-18 13:12:00,
2013-09-18 09:27:00,63.3,55.2,30.02,NE,45,2.2,-999.0,75,-99.99,,,0.00,Acu-Link.com,2013-09-18 13:27:00,
2013-09-18 09:42:00,64.0,55.5,30.02,NE,45,1.7,-999.0,74,-99.99,,,0.00,Acu-Link.com,2013-09-18 13:42:00,
2013-09-18 09:57:00,64.9,56.0,30.03,SW,225,0.0,-999.0,73,-99.99,,,0.00,Acu-Link.com,2013-09-18 13:57:00,
2013-09-18 10:12:00,66.0,55.9,30.03,ENE,67,1.7,-999.0,70,-99.99,,,0.00,Acu-Link.com,2013-09-18 14:12:00,
2013-09-18 10:27:00,67.8,56.0,30.04,NNE,22,3.2,-999.0,66,-99.99,,,0.00,Acu-Link.com,2013-09-18 14:27:00,
2013-09-18 10:42:00,68.4,56.2,30.04,East,90,0.0,-999.0,65,-99.99,,,0.00,Acu-Link.com,2013-09-18 14:42:00,
2013-09-18 10:57:00,69.3,56.6,30.03,NE,45,5.8,-999.0,64,-99.99,,,0.00,Acu-Link.com,2013-09-18 14:57:00,
2013-09-18 11:12:00,70.2,57.0,30.03,ENE,67,3.2,-999.0,63,-99.99,,,0.00,Acu-Link.com,2013-09-18 15:12:00,
2013-09-18 11:28:00,70.7,56.6,30.02,South,180,0.0,-999.0,61,-99.99,,,0.00,Acu-Link.com,2013-09-18 15:28:00,
2013-09-18 11:43:00,71.8,57.2,30.02,NNE,22,4.7,-999.0,60,-99.99,,,0.00,Acu-Link.com,2013-09-18 15:43:00,
2013-09-18 11:58:00,72.0,57.3,30.02,SSE,157,1.1,-999.0,60,-99.99,,,0.00,Acu-Link.com,2013-09-18 15:58:00,
2013-09-18 12:13:00,72.1,57.0,30.02,East,90,1.7,-999.0,59,-99.99,,,0.00,Acu-Link.com,2013-09-18 16:13:00,
2013-09-18 12:28:00,72.7,58.0,30.01,NE,45,3.7,-999.0,60,-99.99,,,0.00,Acu-Link.com,2013-09-18 16:28:00,
2013-09-18 12:43:00,74.3,58.6,30.01,SSW,202,1.1,-999.0,58,-99.99,,,0.00,Acu-Link.com,2013-09-18 16:43:00,
2013-09-18 12:58:00,75.6,58.8,30.01,SSW,202,2.2,-999.0,56,-99.99,,,0.00,Acu-Link.com,2013-09-18 16:58:00,
2013-09-18 13:14:00,78.6,58.9,30.00,ENE,67,2.2,-999.0,51,-99.99,,,0.00,Acu-Link.com,2013-09-18 17:14:00,
2013-09-18 13:29:00,81.0,57.6,30.00,NW,315,1.1,-999.0,45,-99.99,,,0.00,Acu-Link.com,2013-09-18 17:29:00,
2013-09-18 13:44:00,78.4,56.5,29.99,SSE,157,1.7,-999.0,47,-99.99,,,0.00,Acu-Link.com,2013-09-18 17:44:00,
2013-09-18 13:59:00,77.2,56.5,29.98,ENE,67,1.7,-999.0,49,-99.99,,,0.00,Acu-Link.com,2013-09-18 17:59:00,
2013-09-18 14:14:00,77.0,56.9,29.98,SSE,157,1.1,-999.0,50,-99.99,,,0.00,Acu-Link.com,2013-09-18 18:14:00,
2013-09-18 14:29:00,77.0,56.9,29.96,NNW,337,2.2,-999.0,50,-99.99,,,0.00,Acu-Link.com,2013-09-18 18:29:00,
2013-09-18 14:44:00,78.1,57.9,29.96,NE,45,2.2,-999.0,50,-99.99,,,0.00,Acu-Link.com,2013-09-18 18:44:00,
2013-09-18 14:59:00,81.0,58.8,29.97,SW,225,0.0,-999.0,47,-99.99,,,0.00,Acu-Link.com,2013-09-18 18:59:00,
2013-09-18 15:14:00,81.0,59.4,29.95,SW,225,1.1,-999.0,48,-99.99,,,0.00,Acu-Link.com,2013-09-18 19:14:00,
2013-09-18 15:30:00,80.6,59.1,29.94,East,90,0.0,-999.0,48,-99.99,,,0.00,Acu-Link.com,2013-09-18 19:30:00,
2013-09-18 15:45:00,79.7,58.3,29.94,SW,225,1.1,-999.0,48,-99.99,,,0.00,Acu-Link.com,2013-09-18 19:45:00,
2013-09-18 16:00:00,79.7,58.3,29.93,NE,45,1.7,-999.0,48,-99.99,,,0.00,Acu-Link.com,2013-09-18 20:00:00,
2013-09-18 16:15:00,80.6,57.9,29.93,SE,135,0.0,-999.0,46,-99.99,,,0.00,Acu-Link.com,2013-09-18 20:15:00,
2013-09-18 16:30:00,82.4,58.3,29.94,ESE,112,1.1,-999.0,44,-99.99,,,0.00,Acu-Link.com,2013-09-18 20:30:00,
2013-09-18 16:45:00,82.4,58.9,29.92,WSW,247,1.7,-999.0,45,-99.99,,,0.00,Acu-Link.com,2013-09-18 20:45:00,
2013-09-18 17:00:00,83.8,58.9,29.93,SSW,202,0.0,-999.0,43,-99.99,,,0.00,Acu-Link.com,2013-09-18 21:00:00,
2013-09-18 17:15:00,82.6,58.5,29.93,East,90,0.0,-999.0,44,-99.99,,,0.00,Acu-Link.com,2013-09-18 21:15:00,
2013-09-18 17:30:00,81.5,59.3,29.92,ESE,112,0.0,-999.0,47,-99.99,,,0.00,Acu-Link.com,2013-09-18 21:30:00,
2013-09-18 17:46:00,81.9,59.1,29.92,WSW,247,1.7,-999.0,46,-99.99,,,0.00,Acu-Link.com,2013-09-18 21:46:00,
2013-09-18 18:16:00,79.0,59.9,29.93,East,90,0.0,-999.0,52,-99.99,,,0.00,Acu-Link.com,2013-09-18 22:16:00,
2013-09-18 18:31:00,77.9,60.4,29.93,WSW,247,0.0,-999.0,55,-99.99,,,0.00,Acu-Link.com,2013-09-18 22:31:00,
2013-09-18 18:46:00,77.0,60.1,29.92,NNE,22,1.1,-999.0,56,-99.99,,,0.00,Acu-Link.com,2013-09-18 22:46:00,
2013-09-18 19:01:00,75.7,58.9,29.93,NNE,22,2.2,-999.0,56,-99.99,,,0.00,Acu-Link.com,2013-09-18 23:01:00,
2013-09-18 19:32:00,73.8,59.5,29.92,NE,45,0.0,-999.0,61,-99.99,,,0.00,Acu-Link.com,2013-09-18 23:32:00,
2013-09-18 19:47:00,72.1,59.7,29.93,NE,45,0.0,-999.0,65,-99.99,,,0.00,Acu-Link.com,2013-09-18 23:47:00,
2013-09-18 20:02:00,70.9,59.4,29.93,NE,45,0.0,-999.0,67,-99.99,,,0.00,Acu-Link.com,2013-09-19 00:02:00,
2013-09-18 20:17:00,70.2,59.1,29.93,ENE,67,0.0,-999.0,68,-99.99,,,0.00,Acu-Link.com,2013-09-19 00:17:00,
2013-09-18 20:32:00,69.3,59.1,29.94,ENE,67,0.0,-999.0,70,-99.99,,,0.00,Acu-Link.com,2013-09-19 00:32:00,
2013-09-18 20:47:00,68.4,59.0,29.93,NE,45,0.0,-999.0,72,-99.99,,,0.00,Acu-Link.com,2013-09-19 00:47:00,
2013-09-18 21:02:00,67.6,59.0,29.94,NE,45,0.0,-999.0,74,-99.99,,,0.00,Acu-Link.com,2013-09-19 01:02:00,
2013-09-18 21:32:00,66.6,58.8,29.94,NE,45,0.0,-999.0,76,-99.99,,,0.00,Acu-Link.com,2013-09-19 01:32:00,
2013-09-18 21:48:00,66.2,58.8,29.95,NE,45,0.0,-999.0,77,-99.99,,,0.00,Acu-Link.com,2013-09-19 01:48:00,
2013-09-18 22:03:00,65.7,58.6,29.95,NE,45,0.0,-999.0,78,-99.99,,,0.00,Acu-Link.com,2013-09-19 02:03:00,
2013-09-18 22:18:00,65.3,58.6,29.95,NE,45,0.0,-999.0,79,-99.99,,,0.00,Acu-Link.com,2013-09-19 02:18:00,
2013-09-18 22:33:00,64.9,58.2,29.95,NE,45,0.0,-999.0,79,-99.99,,,0.00,Acu-Link.com,2013-09-19 02:33:00,
2013-09-18 22:48:00,64.4,58.1,29.95,NE,45,0.0,-999.0,80,-99.99,,,0.00,Acu-Link.com,2013-09-19 02:48:00,
2013-09-18 23:03:00,63.9,57.6,29.95,NE,45,0.0,-999.0,80,-99.99,,,0.00,Acu-Link.com,2013-09-19 03:03:00,
2013-09-18 23:18:00,63.3,57.4,29.95,NE,45,0.0,-999.0,81,-99.99,,,0.00,Acu-Link.com,2013-09-19 03:18:00,
2013-09-18 23:33:00,63.0,57.1,29.95,NE,45,0.0,-999.0,81,-99.99,,,0.00,Acu-Link.com,2013-09-19 03:33:00,
2013-09-18 23:48:00,62.6,56.7,29.95,NE,45,0.0,-999.0,81,-99.99,,,0.00,Acu-Link.com,2013-09-19 03:48:00,